Aeroporto :
LOGIN :

Iscrizione | Disclaimer

   EN    FR    IT 

 










Sommario :    VFR   VFR Marginale   IFR   IFR Intensivo   IFR Molto Intensivo
Visibilità : 
Base nubi : 
>= 8 km
>= 3000ft
5 / 8 km
1000 / 3000 ft
1500m / 5 km
500 / 1000 ft
800 / 1500m
200 / 500 ft
< 800m
< 200 ft
Simboli :   Temporali  Nebbia  Neve Forte  Precipitazioni Forti  Vento > 20 kt
SIGMETs :   Varie  Temporali  Ghiacco  Turbolenza  Onda orograficha  Ceneri Vulcaniche






- Altitudine del aeroporto : 1455 ft


ETIH - Hohenfels Army Air Field

ULTIMO METAR :
  • 140556Z AUTO 12005KT 9999 OVC006 01/01 A2970 RMK AO2 CIG 004V006 SLP078 T00110011 10022 20009 52003 $

METARs OBSOLETI :
  • 140553Z AUTO 12005KT 9999 OVC006 01/01 A2970 RMK AO2 CIG 004V006 SLP078 $
  • 140456Z AUTO 13006KT 6000 BR OVC003 01/01 A2970 RMK AO2 SLP078 T00110011 $
  • 140400Z AUTO 13006KT 5000 BR OVC003 01/01 A2969 RMK AO2 SLP075 $
  • 140336Z AUTO 11007KT 4400 BR OVC003 01/01 A2969 RMK AO2 SLP075 $

Previsioni scadute.



MetMap, La meteo Aeronautica in un colpo d'occhio ! - Copyright ORBIFLY Dicembre 2007 - Disclaimer

ORBIFLY MET'MAP TEAM :

Programmazione e sviluppo : Alexandra Zaïnal
Concezione e sviluppo : Baudouin d'Aumeries
Co-Programmazione e sviluppo : Marc-Olivier Méhu
Supporto tecnico e logistico : Manuel Goepfert
Aiuto per la traduzione : Arnaldo La Scala

Contatto : metmap@orbifly.com




FONTI E CREDITI :

   NOAA